sensor_id;sensor_type;location;lat;lon;timestamp;P1;durP1;ratioP1;P2;durP2;ratioP2
7049;SDS011;22263;52.260;10.548;2023-05-10T00:02:14;0.30;;;0.30;;
7049;SDS011;22263;52.260;10.548;2023-05-10T00:04:44;0.30;;;0.30;;
7049;SDS011;22263;52.260;10.548;2023-05-10T00:07:14;0.30;;;0.30;;
7049;SDS011;22263;52.260;10.548;2023-05-10T00:09:45;0.30;;;0.30;;
7049;SDS011;22263;52.260;10.548;2023-05-10T00:12:15;0.30;;;0.30;;
7049;SDS011;22263;52.260;10.548;2023-05-10T00:14:47;0.40;;;0.40;;
7049;SDS011;22263;52.260;10.548;2023-05-10T00:17:20;0.30;;;0.30;;
7049;SDS011;22263;52.260;10.548;2023-05-10T00:19:51;0.30;;;0.30;;
7049;SDS011;22263;52.260;10.548;2023-05-10T00:22:23;0.30;;;0.30;;
7049;SDS011;22263;52.260;10.548;2023-05-10T00:24:53;0.30;;;0.30;;
7049;SDS011;22263;52.260;10.548;2023-05-10T00:27:23;0.30;;;0.30;;
7049;SDS011;22263;52.260;10.548;2023-05-10T00:29:55;0.30;;;0.30;;
7049;SDS011;22263;52.260;10.548;2023-05-10T00:32:30;0.30;;;0.30;;
7049;SDS011;22263;52.260;10.548;2023-05-10T00:35:04;0.30;;;0.30;;
7049;SDS011;22263;52.260;10.548;2023-05-10T00:37:34;0.30;;;0.30;;
7049;SDS011;22263;52.260;10.548;2023-05-10T00:40:06;0.30;;;0.30;;
7049;SDS011;22263;52.260;10.548;2023-05-10T00:42:37;0.30;;;0.30;;
7049;SDS011;22263;52.260;10.548;2023-05-10T00:45:09;0.30;;;0.30;;
7049;SDS011;22263;52.260;10.548;2023-05-10T00:47:42;0.30;;;0.30;;
7049;SDS011;22263;52.260;10.548;2023-05-10T00:50:13;0.30;;;0.30;;
7049;SDS011;22263;52.260;10.548;2023-05-10T00:52:44;0.30;;;0.30;;
7049;SDS011;22263;52.260;10.548;2023-05-10T00:55:14;0.30;;;0.30;;
7049;SDS011;22263;52.260;10.548;2023-05-10T00:57:45;0.30;;;0.30;;
7049;SDS011;22263;52.260;10.548;2023-05-10T01:00:17;0.30;;;0.30;;
7049;SDS011;22263;52.260;10.548;2023-05-10T01:02:53;0.30;;;0.30;;
7049;SDS011;22263;52.260;10.548;2023-05-10T01:05:24;0.30;;;0.30;;
7049;SDS011;22263;52.260;10.548;2023-05-10T01:07:56;0.30;;;0.30;;
7049;SDS011;22263;52.260;10.548;2023-05-10T01:10:29;0.30;;;0.30;;
7049;SDS011;22263;52.260;10.548;2023-05-10T01:13:01;0.40;;;0.40;;
7049;SDS011;22263;52.260;10.548;2023-05-10T01:15:33;0.30;;;0.30;;
7049;SDS011;22263;52.260;10.548;2023-05-10T01:18:06;0.30;;;0.30;;
7049;SDS011;22263;52.260;10.548;2023-05-10T01:20:40;0.30;;;0.30;;
7049;SDS011;22263;52.260;10.548;2023-05-10T01:23:30;0.30;;;0.30;;
7049;SDS011;22263;52.260;10.548;2023-05-10T01:26:24;0.30;;;0.30;;
7049;SDS011;22263;52.260;10.548;2023-05-10T01:29:14;0.30;;;0.30;;
7049;SDS011;22263;52.260;10.548;2023-05-10T01:35:00;0.30;;;0.30;;
7049;SDS011;22263;52.260;10.548;2023-05-10T01:37:35;0.30;;;0.30;;
7049;SDS011;22263;52.260;10.548;2023-05-10T01:40:14;0.30;;;0.30;;
7049;SDS011;22263;52.260;10.548;2023-05-10T01:42:54;0.30;;;0.30;;
7049;SDS011;22263;52.260;10.548;2023-05-10T01:45:30;0.20;;;0.20;;
7049;SDS011;22263;52.260;10.548;2023-05-10T01:48:09;0.30;;;0.30;;
7049;SDS011;22263;52.260;10.548;2023-05-10T01:50:43;0.30;;;0.30;;
7049;SDS011;22263;52.260;10.548;2023-05-10T01:53:17;0.30;;;0.30;;
7049;SDS011;22263;52.260;10.548;2023-05-10T01:55:50;0.30;;;0.30;;
7049;SDS011;22263;52.260;10.548;2023-05-10T01:58:23;0.30;;;0.30;;
7049;SDS011;22263;52.260;10.548;2023-05-10T02:00:58;0.30;;;0.30;;
7049;SDS011;22263;52.260;10.548;2023-05-10T02:03:33;0.30;;;0.30;;
7049;SDS011;22263;52.260;10.548;2023-05-10T02:06:06;0.30;;;0.30;;
7049;SDS011;22263;52.260;10.548;2023-05-10T02:08:38;0.30;;;0.30;;
7049;SDS011;22263;52.260;10.548;2023-05-10T02:11:12;0.30;;;0.30;;
7049;SDS011;22263;52.260;10.548;2023-05-10T02:13:46;0.30;;;0.30;;
7049;SDS011;22263;52.260;10.548;2023-05-10T02:16:32;0.30;;;0.30;;
7049;SDS011;22263;52.260;10.548;2023-05-10T02:19:11;0.30;;;0.30;;
7049;SDS011;22263;52.260;10.548;2023-05-10T02:21:46;0.30;;;0.30;;
7049;SDS011;22263;52.260;10.548;2023-05-10T02:24:30;0.30;;;0.30;;
7049;SDS011;22263;52.260;10.548;2023-05-10T02:27:12;0.40;;;0.40;;
7049;SDS011;22263;52.260;10.548;2023-05-10T02:30:00;0.40;;;0.40;;
7049;SDS011;22263;52.260;10.548;2023-05-10T02:32:46;0.30;;;0.30;;
7049;SDS011;22263;52.260;10.548;2023-05-10T02:35:24;0.30;;;0.30;;
7049;SDS011;22263;52.260;10.548;2023-05-10T02:38:13;0.40;;;0.40;;
7049;SDS011;22263;52.260;10.548;2023-05-10T02:40:49;0.30;;;0.30;;
7049;SDS011;22263;52.260;10.548;2023-05-10T02:43:23;0.30;;;0.30;;
7049;SDS011;22263;52.260;10.548;2023-05-10T02:46:03;0.40;;;0.40;;
7049;SDS011;22263;52.260;10.548;2023-05-10T02:48:40;0.40;;;0.40;;
7049;SDS011;22263;52.260;10.548;2023-05-10T02:51:15;0.30;;;0.30;;
7049;SDS011;22263;52.260;10.548;2023-05-10T02:54:09;0.35;;;0.35;;
7049;SDS011;22263;52.260;10.548;2023-05-10T02:56:50;0.30;;;0.30;;
7049;SDS011;22263;52.260;10.548;2023-05-10T02:59:32;0.40;;;0.40;;
7049;SDS011;22263;52.260;10.548;2023-05-10T03:02:13;0.40;;;0.40;;
7049;SDS011;22263;52.260;10.548;2023-05-10T03:05:04;0.30;;;0.30;;
7049;SDS011;22263;52.260;10.548;2023-05-10T03:07:55;0.30;;;0.30;;
7049;SDS011;22263;52.260;10.548;2023-05-10T03:10:41;0.30;;;0.30;;
7049;SDS011;22263;52.260;10.548;2023-05-10T03:14:02;0.30;;;0.30;;
7049;SDS011;22263;52.260;10.548;2023-05-10T03:17:04;0.40;;;0.40;;
7049;SDS011;22263;52.260;10.548;2023-05-10T03:20:08;0.40;;;0.40;;
7049;SDS011;22263;52.260;10.548;2023-05-10T03:23:04;0.30;;;0.30;;
7049;SDS011;22263;52.260;10.548;2023-05-10T03:25:45;0.30;;;0.30;;
7049;SDS011;22263;52.260;10.548;2023-05-10T03:28:18;0.35;;;0.35;;
7049;SDS011;22263;52.260;10.548;2023-05-10T03:30:50;0.30;;;0.30;;
7049;SDS011;22263;52.260;10.548;2023-05-10T03:33:22;0.30;;;0.30;;
7049;SDS011;22263;52.260;10.548;2023-05-10T03:35:55;0.40;;;0.40;;
7049;SDS011;22263;52.260;10.548;2023-05-10T03:38:31;0.30;;;0.30;;
7049;SDS011;22263;52.260;10.548;2023-05-10T03:41:04;0.30;;;0.30;;
7049;SDS011;22263;52.260;10.548;2023-05-10T03:43:36;0.30;;;0.30;;
7049;SDS011;22263;52.260;10.548;2023-05-10T03:46:07;0.40;;;0.40;;
7049;SDS011;22263;52.260;10.548;2023-05-10T03:48:38;0.40;;;0.40;;
7049;SDS011;22263;52.260;10.548;2023-05-10T03:51:09;0.30;;;0.30;;
7049;SDS011;22263;52.260;10.548;2023-05-10T03:53:45;0.30;;;0.30;;
7049;SDS011;22263;52.260;10.548;2023-05-10T03:56:19;0.30;;;0.30;;
7049;SDS011;22263;52.260;10.548;2023-05-10T03:58:50;0.30;;;0.30;;
7049;SDS011;22263;52.260;10.548;2023-05-10T04:01:20;0.32;;;0.32;;
7049;SDS011;22263;52.260;10.548;2023-05-10T04:03:50;0.40;;;0.40;;
7049;SDS011;22263;52.260;10.548;2023-05-10T04:06:21;0.30;;;0.30;;
7049;SDS011;22263;52.260;10.548;2023-05-10T04:08:56;0.40;;;0.40;;
7049;SDS011;22263;52.260;10.548;2023-05-10T04:11:30;0.38;;;0.38;;
7049;SDS011;22263;52.260;10.548;2023-05-10T04:14:00;0.30;;;0.30;;
7049;SDS011;22263;52.260;10.548;2023-05-10T04:16:30;0.30;;;0.30;;
7049;SDS011;22263;52.260;10.548;2023-05-10T04:19:02;0.38;;;0.38;;
7049;SDS011;22263;52.260;10.548;2023-05-10T04:21:32;0.30;;;0.30;;
7049;SDS011;22263;52.260;10.548;2023-05-10T04:24:05;0.30;;;0.30;;
7049;SDS011;22263;52.260;10.548;2023-05-10T04:26:39;0.40;;;0.40;;
7049;SDS011;22263;52.260;10.548;2023-05-10T04:29:10;0.30;;;0.30;;
7049;SDS011;22263;52.260;10.548;2023-05-10T04:31:40;0.38;;;0.38;;
7049;SDS011;22263;52.260;10.548;2023-05-10T04:34:13;0.30;;;0.30;;
7049;SDS011;22263;52.260;10.548;2023-05-10T04:36:43;0.30;;;0.30;;
7049;SDS011;22263;52.260;10.548;2023-05-10T04:39:16;0.40;;;0.40;;
7049;SDS011;22263;52.260;10.548;2023-05-10T04:41:46;0.40;;;0.40;;
7049;SDS011;22263;52.260;10.548;2023-05-10T04:44:16;0.40;;;0.40;;
7049;SDS011;22263;52.260;10.548;2023-05-10T04:46:46;0.40;;;0.40;;
7049;SDS011;22263;52.260;10.548;2023-05-10T04:49:17;0.30;;;0.30;;
7049;SDS011;22263;52.260;10.548;2023-05-10T04:51:49;0.40;;;0.40;;
7049;SDS011;22263;52.260;10.548;2023-05-10T04:54:23;0.30;;;0.30;;
7049;SDS011;22263;52.260;10.548;2023-05-10T04:56:57;0.40;;;0.40;;
7049;SDS011;22263;52.260;10.548;2023-05-10T04:59:27;0.30;;;0.30;;
7049;SDS011;22263;52.260;10.548;2023-05-10T05:01:57;0.30;;;0.30;;
7049;SDS011;22263;52.260;10.548;2023-05-10T05:04:29;0.40;;;0.40;;
7049;SDS011;22263;52.260;10.548;2023-05-10T05:06:59;0.30;;;0.30;;
7049;SDS011;22263;52.260;10.548;2023-05-10T05:09:32;0.40;;;0.40;;
7049;SDS011;22263;52.260;10.548;2023-05-10T05:12:05;0.40;;;0.40;;
7049;SDS011;22263;52.260;10.548;2023-05-10T05:14:41;0.30;;;0.30;;
7049;SDS011;22263;52.260;10.548;2023-05-10T05:17:11;0.30;;;0.30;;
7049;SDS011;22263;52.260;10.548;2023-05-10T05:19:42;0.30;;;0.30;;
7049;SDS011;22263;52.260;10.548;2023-05-10T05:22:12;0.35;;;0.35;;
7049;SDS011;22263;52.260;10.548;2023-05-10T05:24:47;0.30;;;0.30;;
7049;SDS011;22263;52.260;10.548;2023-05-10T05:27:18;0.30;;;0.30;;
7049;SDS011;22263;52.260;10.548;2023-05-10T05:29:51;0.30;;;0.30;;
7049;SDS011;22263;52.260;10.548;2023-05-10T05:32:22;0.40;;;0.40;;
7049;SDS011;22263;52.260;10.548;2023-05-10T05:34:56;0.30;;;0.30;;
7049;SDS011;22263;52.260;10.548;2023-05-10T05:37:30;0.35;;;0.35;;
7049;SDS011;22263;52.260;10.548;2023-05-10T05:40:05;0.30;;;0.30;;
7049;SDS011;22263;52.260;10.548;2023-05-10T05:42:36;0.40;;;0.40;;
7049;SDS011;22263;52.260;10.548;2023-05-10T05:45:06;0.40;;;0.40;;
7049;SDS011;22263;52.260;10.548;2023-05-10T05:47:42;0.40;;;0.40;;
7049;SDS011;22263;52.260;10.548;2023-05-10T05:50:14;0.30;;;0.30;;
7049;SDS011;22263;52.260;10.548;2023-05-10T05:52:44;0.30;;;0.30;;
7049;SDS011;22263;52.260;10.548;2023-05-10T05:55:16;0.30;;;0.30;;
7049;SDS011;22263;52.260;10.548;2023-05-10T05:57:46;0.40;;;0.40;;
7049;SDS011;22263;52.260;10.548;2023-05-10T06:00:16;0.30;;;0.30;;
7049;SDS011;22263;52.260;10.548;2023-05-10T06:02:48;0.30;;;0.30;;
7049;SDS011;22263;52.260;10.548;2023-05-10T06:05:20;0.38;;;0.38;;
7049;SDS011;22263;52.260;10.548;2023-05-10T06:07:50;0.30;;;0.30;;
7049;SDS011;22263;52.260;10.548;2023-05-10T06:10:24;0.40;;;0.40;;
7049;SDS011;22263;52.260;10.548;2023-05-10T06:12:54;0.35;;;0.35;;
7049;SDS011;22263;52.260;10.548;2023-05-10T06:15:26;0.40;;;0.40;;
7049;SDS011;22263;52.260;10.548;2023-05-10T06:17:56;0.40;;;0.40;;
7049;SDS011;22263;52.260;10.548;2023-05-10T06:20:26;0.40;;;0.40;;
7049;SDS011;22263;52.260;10.548;2023-05-10T06:22:58;0.30;;;0.30;;
7049;SDS011;22263;52.260;10.548;2023-05-10T06:25:31;0.30;;;0.30;;
7049;SDS011;22263;52.260;10.548;2023-05-10T06:28:01;0.30;;;0.30;;
7049;SDS011;22263;52.260;10.548;2023-05-10T06:30:31;0.30;;;0.30;;
7049;SDS011;22263;52.260;10.548;2023-05-10T06:33:01;0.30;;;0.30;;
7049;SDS011;22263;52.260;10.548;2023-05-10T06:35:32;0.25;;;0.25;;
7049;SDS011;22263;52.260;10.548;2023-05-10T06:38:02;0.30;;;0.30;;
7049;SDS011;22263;52.260;10.548;2023-05-10T06:40:35;0.40;;;0.40;;
7049;SDS011;22263;52.260;10.548;2023-05-10T06:43:05;0.30;;;0.30;;
7049;SDS011;22263;52.260;10.548;2023-05-10T06:45:36;0.30;;;0.30;;
7049;SDS011;22263;52.260;10.548;2023-05-10T06:48:06;0.30;;;0.30;;
7049;SDS011;22263;52.260;10.548;2023-05-10T06:50:36;0.30;;;0.30;;
7049;SDS011;22263;52.260;10.548;2023-05-10T06:53:06;0.30;;;0.30;;
7049;SDS011;22263;52.260;10.548;2023-05-10T06:55:39;0.30;;;0.30;;
7049;SDS011;22263;52.260;10.548;2023-05-10T06:58:09;0.30;;;0.30;;
7049;SDS011;22263;52.260;10.548;2023-05-10T07:00:40;0.40;;;0.40;;
7049;SDS011;22263;52.260;10.548;2023-05-10T07:03:12;0.30;;;0.30;;
7049;SDS011;22263;52.260;10.548;2023-05-10T07:05:42;0.30;;;0.30;;
7049;SDS011;22263;52.260;10.548;2023-05-10T07:08:15;0.40;;;0.40;;
7049;SDS011;22263;52.260;10.548;2023-05-10T07:10:49;0.30;;;0.30;;
7049;SDS011;22263;52.260;10.548;2023-05-10T07:13:19;0.40;;;0.40;;
7049;SDS011;22263;52.260;10.548;2023-05-10T07:15:52;0.40;;;0.40;;
7049;SDS011;22263;52.260;10.548;2023-05-10T07:18:21;0.35;;;0.35;;
7049;SDS011;22263;52.260;10.548;2023-05-10T07:20:52;0.30;;;0.30;;
7049;SDS011;22263;52.260;10.548;2023-05-10T07:23:23;0.30;;;0.30;;
7049;SDS011;22263;52.260;10.548;2023-05-10T07:25:59;0.30;;;0.30;;
7049;SDS011;22263;52.260;10.548;2023-05-10T07:28:29;0.30;;;0.30;;
7049;SDS011;22263;52.260;10.548;2023-05-10T07:31:04;0.30;;;0.30;;
7049;SDS011;22263;52.260;10.548;2023-05-10T07:33:34;0.30;;;0.30;;
7049;SDS011;22263;52.260;10.548;2023-05-10T07:36:07;0.30;;;0.30;;
7049;SDS011;22263;52.260;10.548;2023-05-10T07:38:42;0.40;;;0.40;;
7049;SDS011;22263;52.260;10.548;2023-05-10T07:41:15;0.40;;;0.40;;
7049;SDS011;22263;52.260;10.548;2023-05-10T07:43:45;0.40;;;0.40;;
7049;SDS011;22263;52.260;10.548;2023-05-10T07:46:18;0.30;;;0.30;;
7049;SDS011;22263;52.260;10.548;2023-05-10T07:48:49;0.30;;;0.30;;
7049;SDS011;22263;52.260;10.548;2023-05-10T07:51:22;0.30;;;0.30;;
7049;SDS011;22263;52.260;10.548;2023-05-10T07:53:54;0.40;;;0.40;;
7049;SDS011;22263;52.260;10.548;2023-05-10T07:56:27;0.40;;;0.40;;
7049;SDS011;22263;52.260;10.548;2023-05-10T07:58:59;0.30;;;0.30;;
7049;SDS011;22263;52.260;10.548;2023-05-10T08:01:31;0.30;;;0.30;;
7049;SDS011;22263;52.260;10.548;2023-05-10T08:04:02;0.40;;;0.40;;
7049;SDS011;22263;52.260;10.548;2023-05-10T08:06:32;0.40;;;0.40;;
7049;SDS011;22263;52.260;10.548;2023-05-10T08:09:04;0.30;;;0.30;;
7049;SDS011;22263;52.260;10.548;2023-05-10T08:11:37;0.30;;;0.30;;
7049;SDS011;22263;52.260;10.548;2023-05-10T08:14:07;0.30;;;0.30;;
7049;SDS011;22263;52.260;10.548;2023-05-10T08:16:37;0.40;;;0.40;;
7049;SDS011;22263;52.260;10.548;2023-05-10T08:19:08;0.40;;;0.40;;
7049;SDS011;22263;52.260;10.548;2023-05-10T08:21:38;0.35;;;0.35;;
7049;SDS011;22263;52.260;10.548;2023-05-10T08:24:11;0.40;;;0.40;;
7049;SDS011;22263;52.260;10.548;2023-05-10T08:26:44;0.30;;;0.30;;
7049;SDS011;22263;52.260;10.548;2023-05-10T08:29:14;0.30;;;0.30;;
7049;SDS011;22263;52.260;10.548;2023-05-10T08:31:48;0.40;;;0.40;;
7049;SDS011;22263;52.260;10.548;2023-05-10T08:34:18;0.30;;;0.30;;
7049;SDS011;22263;52.260;10.548;2023-05-10T08:36:48;0.30;;;0.30;;
7049;SDS011;22263;52.260;10.548;2023-05-10T08:39:21;0.30;;;0.30;;
7049;SDS011;22263;52.260;10.548;2023-05-10T08:41:59;0.30;;;0.30;;
7049;SDS011;22263;52.260;10.548;2023-05-10T08:44:34;0.30;;;0.30;;
7049;SDS011;22263;52.260;10.548;2023-05-10T08:47:07;0.35;;;0.35;;
7049;SDS011;22263;52.260;10.548;2023-05-10T08:49:43;0.30;;;0.30;;
7049;SDS011;22263;52.260;10.548;2023-05-10T08:52:18;0.30;;;0.30;;
7049;SDS011;22263;52.260;10.548;2023-05-10T08:54:50;0.30;;;0.30;;
7049;SDS011;22263;52.260;10.548;2023-05-10T08:57:23;0.30;;;0.30;;
7049;SDS011;22263;52.260;10.548;2023-05-10T08:59:54;0.30;;;0.30;;
7049;SDS011;22263;52.260;10.548;2023-05-10T09:02:24;0.30;;;0.30;;
7049;SDS011;22263;52.260;10.548;2023-05-10T09:04:55;0.30;;;0.30;;
7049;SDS011;22263;52.260;10.548;2023-05-10T09:07:27;0.30;;;0.30;;
7049;SDS011;22263;52.260;10.548;2023-05-10T09:10:01;0.35;;;0.35;;
7049;SDS011;22263;52.260;10.548;2023-05-10T09:12:37;0.40;;;0.40;;
7049;SDS011;22263;52.260;10.548;2023-05-10T09:15:10;0.30;;;0.30;;
7049;SDS011;22263;52.260;10.548;2023-05-10T09:17:42;0.30;;;0.30;;
7049;SDS011;22263;52.260;10.548;2023-05-10T09:20:22;0.30;;;0.30;;
7049;SDS011;22263;52.260;10.548;2023-05-10T09:22:56;0.40;;;0.40;;
7049;SDS011;22263;52.260;10.548;2023-05-10T09:25:27;0.30;;;0.30;;
7049;SDS011;22263;52.260;10.548;2023-05-10T09:28:03;0.40;;;0.40;;
7049;SDS011;22263;52.260;10.548;2023-05-10T09:30:36;0.30;;;0.30;;
7049;SDS011;22263;52.260;10.548;2023-05-10T09:33:07;0.30;;;0.30;;
7049;SDS011;22263;52.260;10.548;2023-05-10T09:35:37;0.30;;;0.30;;
7049;SDS011;22263;52.260;10.548;2023-05-10T09:38:09;0.30;;;0.30;;
7049;SDS011;22263;52.260;10.548;2023-05-10T09:40:42;0.30;;;0.30;;
7049;SDS011;22263;52.260;10.548;2023-05-10T09:43:26;0.30;;;0.30;;
7049;SDS011;22263;52.260;10.548;2023-05-10T09:45:58;0.40;;;0.40;;
7049;SDS011;22263;52.260;10.548;2023-05-10T09:48:29;0.30;;;0.30;;
7049;SDS011;22263;52.260;10.548;2023-05-10T09:51:00;0.30;;;0.30;;
7049;SDS011;22263;52.260;10.548;2023-05-10T09:53:31;0.30;;;0.30;;
7049;SDS011;22263;52.260;10.548;2023-05-10T09:56:01;0.30;;;0.30;;
7049;SDS011;22263;52.260;10.548;2023-05-10T09:58:35;0.30;;;0.30;;
7049;SDS011;22263;52.260;10.548;2023-05-10T10:01:10;0.30;;;0.30;;
7049;SDS011;22263;52.260;10.548;2023-05-10T10:03:41;0.30;;;0.30;;
7049;SDS011;22263;52.260;10.548;2023-05-10T10:06:18;0.30;;;0.30;;
7049;SDS011;22263;52.260;10.548;2023-05-10T10:08:56;0.30;;;0.30;;
7049;SDS011;22263;52.260;10.548;2023-05-10T10:11:26;0.30;;;0.30;;
7049;SDS011;22263;52.260;10.548;2023-05-10T10:14:02;0.30;;;0.30;;
7049;SDS011;22263;52.260;10.548;2023-05-10T10:16:38;0.30;;;0.30;;
7049;SDS011;22263;52.260;10.548;2023-05-10T10:19:28;0.30;;;0.30;;
7049;SDS011;22263;52.260;10.548;2023-05-10T10:22:03;0.30;;;0.30;;
7049;SDS011;22263;52.260;10.548;2023-05-10T10:24:37;0.30;;;0.30;;
7049;SDS011;22263;52.260;10.548;2023-05-10T10:27:15;0.30;;;0.30;;
7049;SDS011;22263;52.260;10.548;2023-05-10T10:30:01;0.30;;;0.30;;
7049;SDS011;22263;52.260;10.548;2023-05-10T10:32:49;0.30;;;0.30;;
7049;SDS011;22263;52.260;10.548;2023-05-10T10:35:54;0.30;;;0.30;;
7049;SDS011;22263;52.260;10.548;2023-05-10T10:38:35;0.30;;;0.30;;
7049;SDS011;22263;52.260;10.548;2023-05-10T10:41:10;0.30;;;0.30;;
7049;SDS011;22263;52.260;10.548;2023-05-10T10:47:04;0.30;;;0.30;;
7049;SDS011;22263;52.260;10.548;2023-05-10T10:50:02;0.30;;;0.30;;
7049;SDS011;22263;52.260;10.548;2023-05-10T10:52:36;0.30;;;0.30;;
7049;SDS011;22263;52.260;10.548;2023-05-10T10:55:13;0.30;;;0.30;;
7049;SDS011;22263;52.260;10.548;2023-05-10T10:57:46;0.30;;;0.30;;
7049;SDS011;22263;52.260;10.548;2023-05-10T11:00:19;0.30;;;0.30;;
7049;SDS011;22263;52.260;10.548;2023-05-10T11:02:55;0.30;;;0.30;;
7049;SDS011;22263;52.260;10.548;2023-05-10T11:05:36;0.32;;;0.32;;
7049;SDS011;22263;52.260;10.548;2023-05-10T11:08:13;0.35;;;0.35;;
7049;SDS011;22263;52.260;10.548;2023-05-10T11:10:49;0.30;;;0.30;;
7049;SDS011;22263;52.260;10.548;2023-05-10T11:13:30;0.30;;;0.30;;
7049;SDS011;22263;52.260;10.548;2023-05-10T11:16:10;0.30;;;0.30;;
7049;SDS011;22263;52.260;10.548;2023-05-10T11:18:54;0.30;;;0.30;;
7049;SDS011;22263;52.260;10.548;2023-05-10T11:21:28;0.22;;;0.22;;
7049;SDS011;22263;52.260;10.548;2023-05-10T11:24:00;0.30;;;0.30;;
7049;SDS011;22263;52.260;10.548;2023-05-10T11:26:33;0.30;;;0.30;;
7049;SDS011;22263;52.260;10.548;2023-05-10T11:29:05;0.30;;;0.30;;
7049;SDS011;22263;52.260;10.548;2023-05-10T11:31:41;0.30;;;0.30;;
7049;SDS011;22263;52.260;10.548;2023-05-10T11:34:15;0.30;;;0.30;;
7049;SDS011;22263;52.260;10.548;2023-05-10T11:36:53;0.30;;;0.30;;
7049;SDS011;22263;52.260;10.548;2023-05-10T11:39:25;0.30;;;0.30;;
7049;SDS011;22263;52.260;10.548;2023-05-10T11:41:58;0.30;;;0.30;;
7049;SDS011;22263;52.260;10.548;2023-05-10T11:44:30;0.30;;;0.30;;
7049;SDS011;22263;52.260;10.548;2023-05-10T11:47:02;0.30;;;0.30;;
7049;SDS011;22263;52.260;10.548;2023-05-10T11:49:35;0.30;;;0.30;;
7049;SDS011;22263;52.260;10.548;2023-05-10T11:52:09;0.30;;;0.30;;
7049;SDS011;22263;52.260;10.548;2023-05-10T11:54:44;0.30;;;0.30;;
7049;SDS011;22263;52.260;10.548;2023-05-10T11:57:17;0.30;;;0.30;;
7049;SDS011;22263;52.260;10.548;2023-05-10T11:59:49;0.30;;;0.30;;
7049;SDS011;22263;52.260;10.548;2023-05-10T12:02:26;0.30;;;0.30;;
7049;SDS011;22263;52.260;10.548;2023-05-10T12:04:59;0.30;;;0.30;;
7049;SDS011;22263;52.260;10.548;2023-05-10T12:07:31;0.30;;;0.30;;
7049;SDS011;22263;52.260;10.548;2023-05-10T12:10:04;0.28;;;0.28;;
7049;SDS011;22263;52.260;10.548;2023-05-10T12:12:37;0.22;;;0.22;;
7049;SDS011;22263;52.260;10.548;2023-05-10T12:15:11;0.20;;;0.20;;
7049;SDS011;22263;52.260;10.548;2023-05-10T12:17:47;0.28;;;0.28;;
7049;SDS011;22263;52.260;10.548;2023-05-10T12:20:23;0.30;;;0.30;;
7049;SDS011;22263;52.260;10.548;2023-05-10T12:22:58;0.20;;;0.20;;
7049;SDS011;22263;52.260;10.548;2023-05-10T12:25:32;0.20;;;0.20;;
7049;SDS011;22263;52.260;10.548;2023-05-10T12:28:04;0.20;;;0.20;;
7049;SDS011;22263;52.260;10.548;2023-05-10T12:30:35;0.20;;;0.20;;
7049;SDS011;22263;52.260;10.548;2023-05-10T12:33:11;0.20;;;0.20;;
7049;SDS011;22263;52.260;10.548;2023-05-10T12:35:47;0.20;;;0.20;;
7049;SDS011;22263;52.260;10.548;2023-05-10T12:38:28;0.30;;;0.30;;
7049;SDS011;22263;52.260;10.548;2023-05-10T12:41:03;0.20;;;0.20;;
7049;SDS011;22263;52.260;10.548;2023-05-10T12:43:34;0.20;;;0.20;;
7049;SDS011;22263;52.260;10.548;2023-05-10T12:46:07;0.30;;;0.30;;
7049;SDS011;22263;52.260;10.548;2023-05-10T12:48:38;0.20;;;0.20;;
7049;SDS011;22263;52.260;10.548;2023-05-10T12:51:14;0.20;;;0.20;;
7049;SDS011;22263;52.260;10.548;2023-05-10T12:53:50;0.20;;;0.20;;
7049;SDS011;22263;52.260;10.548;2023-05-10T12:56:24;0.22;;;0.22;;
7049;SDS011;22263;52.260;10.548;2023-05-10T12:58:56;0.20;;;0.20;;
7049;SDS011;22263;52.260;10.548;2023-05-10T13:01:31;0.20;;;0.20;;
7049;SDS011;22263;52.260;10.548;2023-05-10T13:04:09;0.22;;;0.22;;
7049;SDS011;22263;52.260;10.548;2023-05-10T13:06:44;0.20;;;0.20;;
7049;SDS011;22263;52.260;10.548;2023-05-10T13:09:19;0.20;;;0.20;;
7049;SDS011;22263;52.260;10.548;2023-05-10T13:11:50;0.20;;;0.20;;
7049;SDS011;22263;52.260;10.548;2023-05-10T13:14:23;0.20;;;0.20;;
7049;SDS011;22263;52.260;10.548;2023-05-10T13:16:55;0.20;;;0.20;;
7049;SDS011;22263;52.260;10.548;2023-05-10T13:19:28;0.10;;;0.10;;
7049;SDS011;22263;52.260;10.548;2023-05-10T13:22:03;0.20;;;0.20;;
7049;SDS011;22263;52.260;10.548;2023-05-10T13:24:35;0.20;;;0.20;;
7049;SDS011;22263;52.260;10.548;2023-05-10T13:27:07;0.20;;;0.20;;
7049;SDS011;22263;52.260;10.548;2023-05-10T13:29:37;0.20;;;0.20;;
7049;SDS011;22263;52.260;10.548;2023-05-10T13:32:10;0.20;;;0.20;;
7049;SDS011;22263;52.260;10.548;2023-05-10T13:34:40;0.20;;;0.20;;
7049;SDS011;22263;52.260;10.548;2023-05-10T13:37:13;0.15;;;0.15;;
7049;SDS011;22263;52.260;10.548;2023-05-10T13:39:45;0.20;;;0.20;;
7049;SDS011;22263;52.260;10.548;2023-05-10T13:42:15;0.20;;;0.20;;
7049;SDS011;22263;52.260;10.548;2023-05-10T13:44:46;0.20;;;0.20;;
7049;SDS011;22263;52.260;10.548;2023-05-10T13:47:16;0.20;;;0.20;;
7049;SDS011;22263;52.260;10.548;2023-05-10T13:49:49;0.20;;;0.20;;
7049;SDS011;22263;52.260;10.548;2023-05-10T13:52:22;0.28;;;0.28;;
7049;SDS011;22263;52.260;10.548;2023-05-10T13:54:52;0.20;;;0.20;;
7049;SDS011;22263;52.260;10.548;2023-05-10T13:57:24;0.20;;;0.20;;
7049;SDS011;22263;52.260;10.548;2023-05-10T13:59:55;0.20;;;0.20;;
7049;SDS011;22263;52.260;10.548;2023-05-10T14:02:48;0.20;;;0.20;;
7049;SDS011;22263;52.260;10.548;2023-05-10T14:05:20;0.20;;;0.20;;
7049;SDS011;22263;52.260;10.548;2023-05-10T14:07:54;0.20;;;0.20;;
7049;SDS011;22263;52.260;10.548;2023-05-10T14:10:24;0.20;;;0.20;;
7049;SDS011;22263;52.260;10.548;2023-05-10T14:12:57;0.20;;;0.20;;
7049;SDS011;22263;52.260;10.548;2023-05-10T14:15:27;0.20;;;0.20;;
7049;SDS011;22263;52.260;10.548;2023-05-10T14:17:58;0.20;;;0.20;;
7049;SDS011;22263;52.260;10.548;2023-05-10T14:20:29;0.20;;;0.20;;
7049;SDS011;22263;52.260;10.548;2023-05-10T14:23:03;0.20;;;0.20;;
7049;SDS011;22263;52.260;10.548;2023-05-10T14:25:36;0.30;;;0.30;;
7049;SDS011;22263;52.260;10.548;2023-05-10T14:28:07;0.20;;;0.20;;
7049;SDS011;22263;52.260;10.548;2023-05-10T14:30:40;0.20;;;0.20;;
7049;SDS011;22263;52.260;10.548;2023-05-10T14:33:11;0.20;;;0.20;;
7049;SDS011;22263;52.260;10.548;2023-05-10T14:35:42;0.20;;;0.20;;
7049;SDS011;22263;52.260;10.548;2023-05-10T14:38:15;0.20;;;0.20;;
7049;SDS011;22263;52.260;10.548;2023-05-10T14:40:45;0.20;;;0.20;;
7049;SDS011;22263;52.260;10.548;2023-05-10T14:43:17;0.20;;;0.20;;
7049;SDS011;22263;52.260;10.548;2023-05-10T14:45:47;0.20;;;0.20;;
7049;SDS011;22263;52.260;10.548;2023-05-10T14:48:17;0.20;;;0.20;;
7049;SDS011;22263;52.260;10.548;2023-05-10T14:50:48;0.20;;;0.20;;
7049;SDS011;22263;52.260;10.548;2023-05-10T14:53:22;0.20;;;0.20;;
7049;SDS011;22263;52.260;10.548;2023-05-10T14:55:54;0.20;;;0.20;;
7049;SDS011;22263;52.260;10.548;2023-05-10T14:58:26;0.20;;;0.20;;
7049;SDS011;22263;52.260;10.548;2023-05-10T15:00:59;0.20;;;0.20;;
7049;SDS011;22263;52.260;10.548;2023-05-10T15:03:30;0.20;;;0.20;;
7049;SDS011;22263;52.260;10.548;2023-05-10T15:06:01;0.20;;;0.20;;
7049;SDS011;22263;52.260;10.548;2023-05-10T15:08:42;0.20;;;0.20;;
7049;SDS011;22263;52.260;10.548;2023-05-10T15:11:16;0.20;;;0.20;;
7049;SDS011;22263;52.260;10.548;2023-05-10T15:13:52;0.13;;;0.13;;
7049;SDS011;22263;52.260;10.548;2023-05-10T15:16:24;0.20;;;0.20;;
7049;SDS011;22263;52.260;10.548;2023-05-10T15:19:04;0.20;;;0.20;;
7049;SDS011;22263;52.260;10.548;2023-05-10T15:21:42;0.20;;;0.20;;
7049;SDS011;22263;52.260;10.548;2023-05-10T15:24:23;0.20;;;0.20;;
7049;SDS011;22263;52.260;10.548;2023-05-10T15:26:58;0.20;;;0.20;;
7049;SDS011;22263;52.260;10.548;2023-05-10T15:29:34;0.20;;;0.20;;
7049;SDS011;22263;52.260;10.548;2023-05-10T15:32:07;0.20;;;0.20;;
7049;SDS011;22263;52.260;10.548;2023-05-10T15:34:44;0.20;;;0.20;;
7049;SDS011;22263;52.260;10.548;2023-05-10T15:37:16;0.20;;;0.20;;